createdAt,value
2022-11-04T00:45:37.261Z,1.00
2022-11-04T01:05:47.615Z,0.80
2022-11-04T01:50:17.992Z,0.70
2022-11-04T01:53:54.020Z,1.00
2022-11-04T01:57:20.989Z,1.08
2022-11-04T02:00:42.077Z,1.02
2022-11-04T02:04:30.168Z,1.00
2022-11-04T02:32:54.924Z,0.90
2022-11-04T02:36:36.954Z,0.90
2022-11-04T02:40:24.987Z,0.98
2022-11-04T02:44:07.020Z,0.90
2022-11-04T02:47:55.055Z,0.90
2022-11-04T02:51:31.084Z,0.80
2022-11-04T02:55:07.113Z,0.80
2022-11-04T03:01:48.685Z,0.95
2022-11-04T03:05:01.208Z,0.85
2022-11-04T03:08:07.003Z,0.90
2022-11-04T03:11:24.705Z,0.73
2022-11-04T03:14:30.739Z,0.88
2022-11-04T03:17:37.331Z,0.80
2022-11-04T03:20:48.797Z,0.90
2022-11-04T03:24:07.401Z,0.73
2022-11-04T03:27:18.861Z,0.90
2022-11-04T03:30:25.462Z,0.90
2022-11-04T03:33:36.922Z,1.00
2022-11-04T03:36:48.955Z,0.90
2022-11-04T03:39:54.983Z,0.80
2022-11-04T03:43:07.693Z,0.90
2022-11-04T03:46:13.058Z,0.80
2022-11-04T03:49:19.658Z,0.73
2022-11-04T03:52:31.105Z,1.00
2022-11-04T03:55:37.722Z,0.80
2022-11-04T03:58:55.173Z,0.90
2022-11-04T04:02:07.240Z,0.80
2022-11-04T04:05:19.231Z,0.80
2022-11-04T04:08:43.262Z,0.75
2022-11-04T04:11:55.297Z,0.60
2022-11-04T04:15:01.895Z,0.70
2022-11-04T04:18:13.356Z,0.60
2022-11-04T04:21:19.955Z,0.60
2022-11-04T04:24:41.677Z,0.60
2022-11-04T04:27:56.011Z,0.52
2022-11-04T04:31:01.478Z,0.50
2022-11-04T04:34:08.068Z,0.50
2022-11-04T04:37:19.530Z,0.60
2022-11-04T04:40:38.123Z,0.40
2022-11-04T04:43:55.583Z,0.47
2022-11-04T04:47:23.507Z,0.43
2022-11-04T04:50:50.212Z,0.40
2022-11-04T04:54:23.569Z,0.35
2022-11-04T04:57:59.597Z,0.40
2022-11-04T05:01:29.796Z,0.32
2022-11-04T05:04:59.792Z,0.30
2022-11-04T05:11:59.732Z,0.30
2022-11-04T05:15:41.765Z,0.25
2022-11-04T05:22:37.879Z,0.40
2022-11-04T05:25:06.863Z,0.30
2022-11-04T05:27:35.450Z,0.30
2022-11-04T05:31:17.898Z,0.20
2022-11-04T08:37:19.162Z,0.70
2022-11-04T08:40:41.105Z,0.80
2022-11-04T10:42:11.708Z,0.60
2022-11-04T10:44:52.081Z,0.43
2022-11-04T10:47:43.210Z,0.50
2022-11-04T10:50:47.362Z,0.40
2022-11-04T13:18:00.058Z,0.40
2022-11-04T13:26:06.124Z,0.38
2022-11-04T13:29:26.997Z,0.30
2022-11-04T13:32:40.685Z,0.30
2022-11-04T13:36:03.864Z,0.20
2022-11-04T13:39:01.125Z,0.30
2022-11-04T13:42:34.763Z,0.40
2022-11-04T13:46:03.117Z,0.38
2022-11-04T13:49:42.321Z,0.30
2022-11-04T13:52:46.365Z,0.25
2022-11-04T13:56:32.937Z,0.20
2022-11-04T13:59:48.445Z,0.17
2022-11-04T14:03:07.498Z,0.30
2022-11-04T14:06:36.458Z,0.40
2022-11-04T14:10:10.796Z,0.38
2022-11-04T14:13:06.669Z,0.28
2022-11-04T14:16:28.918Z,0.20
2022-11-04T14:20:09.424Z,0.30
2022-11-04T14:23:33.452Z,0.30
2022-11-04T14:26:57.483Z,0.22
2022-11-04T14:30:33.517Z,0.30
2022-11-04T14:33:48.680Z,0.25
2022-11-04T14:37:06.710Z,0.40
2022-11-04T14:40:39.003Z,0.28
2022-11-04T14:44:09.657Z,0.30
2022-11-04T17:24:55.753Z,0.50
2022-11-04T17:28:13.780Z,0.50
2022-11-04T17:40:01.917Z,0.50
2022-11-04T17:43:31.938Z,0.70
2022-11-04T17:47:07.970Z,0.63
2022-11-04T17:50:37.998Z,0.60
2022-11-04T17:54:08.039Z,0.60
2022-11-04T17:57:44.077Z,0.50
2022-11-04T18:01:08.215Z,0.60
2022-11-04T18:04:38.173Z,0.52
2022-11-04T18:08:08.171Z,0.40
2022-11-04T18:11:46.318Z,0.57
2022-11-04T18:15:20.235Z,0.50
2022-11-04T18:18:46.524Z,0.60
2022-11-04T18:22:14.297Z,0.55
2022-11-04T18:25:50.588Z,0.70
2022-11-04T18:29:14.356Z,0.63
2022-11-04T18:32:52.266Z,0.70
2022-11-04T18:36:20.416Z,0.60
2022-11-04T18:39:52.347Z,0.60
2022-11-04T18:43:20.477Z,0.70
2022-11-04T18:46:52.398Z,0.50
2022-11-04T18:50:26.544Z,0.70
2022-11-04T18:53:52.467Z,0.68
2022-11-04T18:57:20.604Z,0.70
2022-11-04T19:00:52.615Z,0.70
2022-11-04T19:04:20.677Z,0.70
2022-11-04T19:07:56.710Z,0.55
2022-11-04T19:11:20.738Z,0.68
2022-11-04T19:14:52.653Z,0.70
2022-11-04T19:18:20.804Z,0.60
2022-11-04T19:21:48.664Z,0.60
2022-11-04T19:25:20.857Z,0.70
2022-11-04T19:28:49.064Z,0.50
2022-11-04T19:32:14.922Z,0.50
2022-11-04T19:35:41.215Z,0.55
2022-11-04T19:42:33.023Z,0.60
2022-11-04T19:46:02.837Z,0.40
2022-11-04T19:49:11.015Z,0.70
2022-11-04T19:52:16.962Z,0.50
2022-11-04T19:55:23.068Z,0.60
2022-11-04T19:58:34.784Z,0.50
2022-11-04T20:01:41.204Z,0.50
2022-11-04T20:04:46.838Z,0.52
2022-11-04T20:07:52.870Z,0.50
2022-11-04T20:11:04.901Z,0.60
2022-11-04T20:14:16.929Z,0.50
2022-11-04T20:17:28.953Z,0.40
2022-11-04T20:20:41.294Z,0.60
2022-11-04T20:24:11.321Z,0.50
2022-11-04T20:27:39.453Z,0.60
2022-11-04T20:31:15.486Z,0.50
2022-11-04T20:34:45.512Z,0.70
2022-11-04T20:38:15.547Z,0.50
2022-11-04T20:41:51.269Z,0.60
2022-11-04T20:45:15.608Z,0.60
2022-11-04T20:48:51.587Z,0.40
2022-11-04T20:52:15.672Z,0.50
2022-11-04T20:55:33.698Z,0.50
2022-11-04T20:59:00.056Z,0.50
2022-11-04T21:02:27.901Z,0.60
2022-11-04T21:06:09.803Z,0.60
2022-11-04T21:09:39.836Z,0.60
2022-11-04T21:13:03.868Z,0.52
2022-11-04T21:16:39.920Z,0.50
2022-11-04T21:20:03.935Z,0.40
2022-11-04T21:44:00.093Z,0.50
2022-11-04T22:00:10.454Z,0.57
2022-11-04T22:03:40.480Z,0.60
2022-11-04T22:07:04.511Z,0.50
2022-11-04T22:10:34.541Z,0.50
2022-11-04T22:13:58.571Z,0.50
2022-11-04T22:17:40.602Z,0.50
2022-11-04T22:21:04.627Z,0.50
2022-11-04T22:24:34.659Z,0.40
2022-11-04T22:28:04.682Z,0.50
2022-11-04T22:31:28.727Z,0.50
2022-11-04T22:35:04.740Z,0.60
2022-11-04T22:38:34.771Z,0.50
2022-11-04T22:41:58.798Z,0.50
2022-11-04T22:45:28.826Z,0.40
2022-11-04T22:48:54.744Z,0.45
2022-11-04T22:52:34.882Z,0.50
2022-11-04T22:56:04.916Z,0.50
2022-11-04T22:59:40.948Z,0.47
2022-11-04T23:03:05.147Z,0.57
2022-11-04T23:06:34.997Z,0.38
2022-11-04T23:10:17.030Z,0.43
2022-11-04T23:13:47.065Z,0.47
2022-11-04T23:17:11.097Z,0.57
2022-11-04T23:20:41.122Z,0.40
2022-11-04T23:24:05.153Z,0.40
2022-11-04T23:27:49.508Z,0.40
2022-11-04T23:31:05.207Z,0.60
2022-11-04T23:34:35.235Z,0.43
2022-11-04T23:38:11.263Z,0.40
2022-11-04T23:41:41.293Z,0.50
2022-11-04T23:45:11.324Z,0.40
